Time;durP1;ratioP1;P1;durP2;ratioP2;P2;SDS_P1;SDS_P2;PMS_P1;PMS_P2;Temp;Humidity;BMP_temperature;BMP_pressure;BME280_temperature;BME280_humidity;BME280_pressure;Samples;Min_cycle;Max_cycle;Signal;HPM_P1;HPM_P2
2023/07/04 00:01:11;;;;;;;;;;;24.50;48.80;;;;;;1641623;71;784;-58
2023/07/04 00:03:14;;;;;;;;;;;24.70;49.00;;;;;;1618895;71;732;-57
2023/07/04 00:05:16;;;;;;;;;;;24.50;48.70;;;;;;1630125;71;744;-58
2023/07/04 00:07:20;;;;;;;;;;;24.60;48.90;;;;;;1625603;71;697;-58
2023/07/04 00:09:21;;;;;;;;;;;24.70;49.20;;;;;;1622195;71;1696;-57
2023/07/04 00:11:23;;;;;;;;;;;24.60;49.10;;;;;;1630412;71;1704;-59
2023/07/04 00:13:27;;;;;;;;;;;24.60;48.90;;;;;;1623891;71;799;-57
2023/07/04 00:15:29;;;;;;;;;;;24.60;48.90;;;;;;1613707;71;1901;-59
2023/07/04 00:17:31;;;;;;;;;;;24.60;49.00;;;;;;1632278;71;780;-57
2023/07/04 00:19:32;;;;;;;;;;;24.60;49.10;;;;;;1630759;70;1123;-58
2023/07/04 00:21:37;;;;;;;;;;;24.60;49.10;;;;;;1626163;71;942;-60
2023/07/04 00:23:38;;;;;;;;;;;24.60;49.20;;;;;;1639896;71;1521;-58
2023/07/04 00:25:40;;;;;;;;;;;24.60;49.20;;;;;;1633377;71;1673;-56
2023/07/04 00:27:42;;;;;;;;;;;24.60;49.20;;;;;;1623654;71;769;-58
2023/07/04 00:29:44;;;;;;;;;;;24.60;49.10;;;;;;1616229;73;1122;-59
2023/07/04 00:31:45;;;;;;;;;;;24.70;49.10;;;;;;1631711;71;760;-59
2023/07/04 00:33:47;;;;;;;;;;;24.60;49.20;;;;;;1626023;71;683;-59
2023/07/04 00:35:49;;;;;;;;;;;24.60;49.10;;;;;;1623533;71;1933;-58
2023/07/04 00:37:51;;;;;;;;;;;24.60;49.10;;;;;;1636640;71;1575;-59
2023/07/04 00:39:53;;;;;;;;;;;24.60;49.10;;;;;;1611937;70;1083;-59
2023/07/04 00:41:56;;;;;;;;;;;24.70;49.20;;;;;;1620239;71;745;-60
2023/07/04 00:44:09;;;;;;;;;;;24.70;49.20;;;;;;1617868;71;764;-59
2023/07/04 00:46:11;;;;;;;;;;;24.60;49.00;;;;;;1627089;71;686;-59
2023/07/04 00:48:14;;;;;;;;;;;24.70;49.10;;;;;;1622983;71;1103;-59
2023/07/04 00:50:19;;;;;;;;;;;24.70;48.90;;;;;;1638553;71;705;-59
2023/07/04 00:52:24;;;;;;;;;;;24.70;48.80;;;;;;1619342;71;1685;-58
2023/07/04 00:54:27;;;;;;;;;;;24.70;48.70;;;;;;1629499;71;1920;-58
2023/07/04 00:56:30;;;;;;;;;;;24.70;48.70;;;;;;1642554;71;1921;-57
2023/07/04 00:58:32;;;;;;;;;;;24.70;48.80;;;;;;1637900;71;1143;-58
2023/07/04 01:00:35;;;;;;;;;;;24.70;48.60;;;;;;1643394;71;729;-58
2023/07/04 01:02:37;;;;;;;;;;;24.70;48.70;;;;;;1637164;71;748;-60
2023/07/04 01:04:39;;;;;;;;;;;24.70;48.50;;;;;;1639689;71;791;-58
2023/07/04 01:06:43;;;;;;;;;;;24.70;48.70;;;;;;1638631;71;1588;-59
2023/07/04 01:08:45;;;;;;;;;;;24.70;48.60;;;;;;1618438;71;1202;-57
2023/07/04 01:10:47;;;;;;;;;;;24.70;48.50;;;;;;1635295;71;736;-58
2023/07/04 01:12:49;;;;;;;;;;;24.70;48.50;;;;;;1617580;71;760;-58
2023/07/04 01:14:51;;;;;;;;;;;24.70;48.60;;;;;;1637345;71;720;-59
2023/07/04 01:16:54;;;;;;;;;;;24.80;48.40;;;;;;1609008;72;1936;-57
2023/07/04 01:18:57;;;;;;;;;;;24.80;48.30;;;;;;1637326;71;1151;-58
2023/07/04 01:21:05;;;;;;;;;;;24.80;48.40;;;;;;1627418;71;1441;-57
2023/07/04 01:23:13;;;;;;;;;;;24.70;48.30;;;;;;1623976;71;1691;-59
2023/07/04 01:25:20;;;;;;;;;;;24.80;48.30;;;;;;1650742;71;1881;-59
2023/07/04 01:27:20;;;;;;;;;;;24.70;48.50;;;;;;1632055;71;1561;-58
2023/07/04 01:29:21;;;;;;;;;;;24.70;48.30;;;;;;1615142;71;1127;-58
2023/07/04 01:31:25;;;;;;;;;;;24.80;48.40;;;;;;1638673;71;744;-57
2023/07/04 01:33:27;;;;;;;;;;;24.70;48.40;;;;;;1618969;71;716;-62
2023/07/04 01:35:29;;;;;;;;;;;24.80;48.40;;;;;;1620772;71;1927;-57
2023/07/04 01:37:30;;;;;;;;;;;24.70;48.40;;;;;;1643739;71;663;-58
2023/07/04 01:39:32;;;;;;;;;;;24.70;48.40;;;;;;1638316;71;1138;-58
2023/07/04 01:41:35;;;;;;;;;;;24.70;48.50;;;;;;1620293;71;811;-58
2023/07/04 01:43:37;;;;;;;;;;;24.70;48.40;;;;;;1631762;71;615;-58
2023/07/04 01:45:38;;;;;;;;;;;24.80;48.40;;;;;;1636106;71;776;-59
2023/07/04 01:47:40;;;;;;;;;;;24.70;48.40;;;;;;1614215;71;631;-60
2023/07/04 01:49:42;;;;;;;;;;;24.70;48.40;;;;;;1624697;70;1393;-59
2023/07/04 01:51:44;;;;;;;;;;;24.70;48.50;;;;;;1634215;71;749;-59
2023/07/04 01:53:46;;;;;;;;;;;24.70;48.50;;;;;;1617093;71;775;-58
2023/07/04 01:55:48;;;;;;;;;;;24.70;48.60;;;;;;1635527;71;1917;-59
2023/07/04 01:57:50;;;;;;;;;;;24.70;48.50;;;;;;1613006;71;699;-57
2023/07/04 01:59:52;;;;;;;;;;;24.70;48.60;;;;;;1644060;70;1103;-58
2023/07/04 02:01:55;;;;;;;;;;;24.70;48.60;;;;;;1648884;71;836;-58
2023/07/04 02:03:56;;;;;;;;;;;24.60;48.60;;;;;;1636494;71;1613;-57
2023/07/04 02:05:58;;;;;;;;;;;24.70;48.60;;;;;;1632345;71;676;-59
2023/07/04 02:08:00;;;;;;;;;;;24.60;48.60;;;;;;1639636;70;1100;-58
2023/07/04 02:10:02;;;;;;;;;;;24.70;48.70;;;;;;1640426;71;808;-58
2023/07/04 02:12:04;;;;;;;;;;;24.70;48.90;;;;;;1628046;71;667;-59
2023/07/04 02:14:06;;;;;;;;;;;24.70;48.70;;;;;;1634952;71;755;-59
2023/07/04 02:16:08;;;;;;;;;;;24.80;48.60;;;;;;1639584;71;1913;-60
2023/07/04 02:18:10;;;;;;;;;;;24.70;48.70;;;;;;1617609;71;1565;-58
2023/07/04 02:20:12;;;;;;;;;;;24.70;48.50;;;;;;1625379;71;786;-59
2023/07/04 02:22:14;;;;;;;;;;;24.70;48.60;;;;;;1626564;71;577;-59
2023/07/04 02:24:16;;;;;;;;;;;24.80;48.40;;;;;;1631012;71;742;-59
2023/07/04 02:26:18;;;;;;;;;;;24.80;48.40;;;;;;1620403;71;734;-60
2023/07/04 02:28:20;;;;;;;;;;;24.80;48.30;;;;;;1629972;70;1119;-58
2023/07/04 02:30:21;;;;;;;;;;;24.80;48.30;;;;;;1620042;71;1536;-60
2023/07/04 02:32:23;;;;;;;;;;;24.80;48.20;;;;;;1612158;71;711;-59
2023/07/04 02:34:25;;;;;;;;;;;24.80;48.40;;;;;;1625330;71;731;-59
2023/07/04 02:36:27;;;;;;;;;;;24.80;48.30;;;;;;1646400;71;1945;-58
2023/07/04 02:38:29;;;;;;;;;;;24.80;48.20;;;;;;1632214;70;1136;-59
2023/07/04 02:40:31;;;;;;;;;;;24.80;48.10;;;;;;1611168;71;684;-59
2023/07/04 02:42:33;;;;;;;;;;;24.90;48.30;;;;;;1651374;71;744;-60
2023/07/04 02:44:35;;;;;;;;;;;24.90;48.10;;;;;;1643601;71;1533;-60
2023/07/04 02:46:37;;;;;;;;;;;24.90;48.20;;;;;;1625921;71;660;-60
2023/07/04 02:48:40;;;;;;;;;;;24.80;48.30;;;;;;1628981;71;1117;-59
2023/07/04 02:50:42;;;;;;;;;;;24.80;48.10;;;;;;1637469;71;752;-58
2023/07/04 02:52:44;;;;;;;;;;;24.80;48.40;;;;;;1620977;71;745;-58
2023/07/04 02:54:46;;;;;;;;;;;24.80;48.40;;;;;;1628699;71;720;-59
2023/07/04 02:56:48;;;;;;;;;;;24.80;48.30;;;;;;1648996;71;1941;-60
2023/07/04 02:58:49;;;;;;;;;;;24.80;48.30;;;;;;1635467;70;1532;-59
2023/07/04 03:00:52;;;;;;;;;;;24.80;48.20;;;;;;1619944;71;683;-59
2023/07/04 03:02:54;;;;;;;;;;;24.80;48.20;;;;;;1622688;71;605;-59
2023/07/04 03:04:57;;;;;;;;;;;24.80;48.30;;;;;;1638384;71;639;-60
2023/07/04 03:06:59;;;;;;;;;;;24.80;48.40;;;;;;1613392;71;701;-58
2023/07/04 03:09:00;;;;;;;;;;;24.80;48.40;;;;;;1643593;71;1114;-59
2023/07/04 03:11:02;;;;;;;;;;;24.80;48.40;;;;;;1633219;71;672;-59
2023/07/04 03:13:04;;;;;;;;;;;24.80;48.40;;;;;;1626528;71;1430;-60
2023/07/04 03:15:07;;;;;;;;;;;24.80;48.40;;;;;;1629030;71;644;-59
2023/07/04 03:17:08;;;;;;;;;;;24.80;48.60;;;;;;1631892;71;1933;-59
2023/07/04 03:19:10;;;;;;;;;;;24.80;48.70;;;;;;1645949;71;1148;-58
2023/07/04 03:21:12;;;;;;;;;;;24.90;48.80;;;;;;1614496;71;636;-58
2023/07/04 03:23:14;;;;;;;;;;;24.80;48.70;;;;;;1629891;71;737;-60
2023/07/04 03:25:16;;;;;;;;;;;24.80;48.90;;;;;;1637148;71;728;-60
2023/07/04 03:27:18;;;;;;;;;;;24.80;48.90;;;;;;1632785;71;1515;-59
2023/07/04 03:29:20;;;;;;;;;;;24.80;48.90;;;;;;1632809;71;1074;-60
2023/07/04 03:31:22;;;;;;;;;;;24.80;48.90;;;;;;1635804;71;737;-57
2023/07/04 03:33:24;;;;;;;;;;;24.80;48.70;;;;;;1615133;71;681;-58
2023/07/04 03:35:26;;;;;;;;;;;24.80;48.80;;;;;;1610004;71;759;-58
2023/07/04 03:37:28;;;;;;;;;;;24.90;48.90;;;;;;1613026;71;1916;-59
2023/07/04 03:39:30;;;;;;;;;;;24.90;48.50;;;;;;1618979;71;1130;-58
2023/07/04 03:41:33;;;;;;;;;;;25.00;48.50;;;;;;1638425;71;1273;-60
2023/07/04 03:43:34;;;;;;;;;;;24.90;48.50;;;;;;1622546;71;839;-57
2023/07/04 03:45:36;;;;;;;;;;;24.90;48.40;;;;;;1627389;71;788;-58
2023/07/04 03:47:38;;;;;;;;;;;25.00;48.60;;;;;;1622736;71;591;-59
2023/07/04 03:49:41;;;;;;;;;;;24.90;48.60;;;;;;1642086;71;1108;-60
2023/07/04 03:51:43;;;;;;;;;;;24.90;48.40;;;;;;1634135;71;711;-59
2023/07/04 03:53:45;;;;;;;;;;;24.80;48.60;;;;;;1615638;71;708;-58
2023/07/04 03:55:48;;;;;;;;;;;24.80;48.70;;;;;;1641289;71;1584;-58
2023/07/04 03:57:50;;;;;;;;;;;24.80;48.70;;;;;;1621518;71;1921;-59
2023/07/04 03:59:52;;;;;;;;;;;24.80;48.90;;;;;;1624877;70;1100;-59
2023/07/04 04:01:54;;;;;;;;;;;24.80;48.80;;;;;;1618445;71;799;-59
2023/07/04 04:03:56;;;;;;;;;;;24.80;49.00;;;;;;1616013;71;789;-57
2023/07/04 04:05:58;;;;;;;;;;;24.80;49.10;;;;;;1617897;71;793;-59
2023/07/04 04:07:59;;;;;;;;;;;24.80;49.10;;;;;;1621534;71;1142;-59
2023/07/04 04:10:01;;;;;;;;;;;24.80;49.10;;;;;;1621738;71;1514;-58
2023/07/04 04:12:04;;;;;;;;;;;24.80;48.90;;;;;;1634888;71;693;-57
2023/07/04 04:14:06;;;;;;;;;;;24.90;48.80;;;;;;1623647;71;751;-59
2023/07/04 04:16:08;;;;;;;;;;;24.90;48.80;;;;;;1648648;71;786;-58
2023/07/04 04:18:09;;;;;;;;;;;24.80;48.80;;;;;;1633402;71;1937;-58
2023/07/04 04:20:11;;;;;;;;;;;24.80;48.70;;;;;;1619436;71;711;-58
2023/07/04 04:22:14;;;;;;;;;;;24.90;48.80;;;;;;1646173;71;732;-58
2023/07/04 04:24:16;;;;;;;;;;;24.80;48.70;;;;;;1608465;71;1300;-58
2023/07/04 04:26:19;;;;;;;;;;;24.80;48.70;;;;;;1628063;71;670;-57
2023/07/04 04:28:21;;;;;;;;;;;24.80;49.00;;;;;;1626790;71;1138;-59
2023/07/04 04:30:23;;;;;;;;;;;24.80;48.80;;;;;;1639588;71;717;-57
2023/07/04 04:32:25;;;;;;;;;;;24.80;48.90;;;;;;1614400;71;728;-60
2023/07/04 04:34:27;;;;;;;;;;;24.80;48.80;;;;;;1630693;71;782;-57
2023/07/04 04:36:30;;;;;;;;;;;24.80;48.90;;;;;;1640496;71;889;-58
2023/07/04 04:38:32;;;;;;;;;;;24.90;49.20;;;;;;1616754;71;1899;-59
2023/07/04 04:40:34;;;;;;;;;;;24.80;48.90;;;;;;1619013;71;854;-59
2023/07/04 04:42:35;;;;;;;;;;;24.80;49.00;;;;;;1652571;71;883;-58
2023/07/04 04:44:39;;;;;;;;;;;24.80;49.10;;;;;;1635679;71;725;-59
2023/07/04 04:46:44;;;;;;;;;;;24.70;49.20;;;;;;1636139;71;1750;-59
2023/07/04 04:48:45;;;;;;;;;;;24.80;49.10;;;;;;1624187;70;1772;-59
2023/07/04 04:50:47;;;;;;;;;;;24.80;49.20;;;;;;1638405;71;665;-60
2023/07/04 04:52:49;;;;;;;;;;;24.80;49.20;;;;;;1632538;71;1617;-58
2023/07/04 04:54:51;;;;;;;;;;;24.80;49.10;;;;;;1624525;71;702;-59
2023/07/04 04:56:53;;;;;;;;;;;24.80;49.20;;;;;;1629647;71;1922;-59
2023/07/04 04:58:56;;;;;;;;;;;24.80;49.10;;;;;;1620884;71;1145;-60
2023/07/04 05:00:57;;;;;;;;;;;24.80;49.00;;;;;;1625721;71;738;-60
2023/07/04 05:03:00;;;;;;;;;;;24.80;49.00;;;;;;1635325;71;781;-59
2023/07/04 05:05:01;;;;;;;;;;;24.90;49.00;;;;;;1609698;71;1348;-60
2023/07/04 05:07:03;;;;;;;;;;;24.80;48.90;;;;;;1639657;71;776;-59
2023/07/04 05:09:05;;;;;;;;;;;24.80;49.10;;;;;;1630079;70;1093;-60
2023/07/04 05:11:07;;;;;;;;;;;24.80;49.10;;;;;;1621481;71;781;-61
2023/07/04 05:13:09;;;;;;;;;;;24.80;47.50;;;;;;1632513;71;748;-60
2023/07/04 05:15:11;;;;;;;;;;;24.80;46.60;;;;;;1624842;71;717;-59
2023/07/04 05:17:13;;;;;;;;;;;24.90;46.20;;;;;;1636472;71;1950;-60
2023/07/04 05:19:15;;;;;;;;;;;24.90;46.30;;;;;;1620244;70;1366;-60
2023/07/04 05:21:18;;;;;;;;;;;24.90;46.10;;;;;;1627272;71;730;-61
2023/07/04 05:23:19;;;;;;;;;;;25.00;46.30;;;;;;1630754;71;741;-61
2023/07/04 05:25:21;;;;;;;;;;;25.00;46.00;;;;;;1627246;71;742;-60
2023/07/04 05:27:23;;;;;;;;;;;25.00;45.70;;;;;;1643847;71;767;-59
2023/07/04 05:29:25;;;;;;;;;;;25.00;45.60;;;;;;1633009;70;1136;-61
2023/07/04 05:31:28;;;;;;;;;;;24.90;45.60;;;;;;1627009;71;665;-60
2023/07/04 05:33:30;;;;;;;;;;;24.90;45.60;;;;;;1639921;71;1511;-60
2023/07/04 05:35:31;;;;;;;;;;;24.90;45.40;;;;;;1633732;71;773;-60
2023/07/04 05:37:33;;;;;;;;;;;24.90;45.40;;;;;;1626183;71;1942;-61
2023/07/04 05:39:35;;;;;;;;;;;24.90;45.50;;;;;;1652095;70;1135;-60
2023/07/04 05:41:38;;;;;;;;;;;24.90;45.60;;;;;;1634109;71;720;-60
2023/07/04 05:43:40;;;;;;;;;;;24.90;45.60;;;;;;1622927;71;882;-59
2023/07/04 05:45:49;;;;;;;;;;;24.80;45.90;;;;;;1621838;71;730;-62
2023/07/04 05:47:50;;;;;;;;;;;24.80;46.50;;;;;;1620247;71;1547;-62
2023/07/04 05:49:52;;;;;;;;;;;24.80;46.90;;;;;;1633150;71;1104;-61
2023/07/04 05:51:54;;;;;;;;;;;24.70;47.10;;;;;;1641856;71;685;-60
2023/07/04 05:53:56;;;;;;;;;;;24.80;47.50;;;;;;1636206;71;807;-59
2023/07/04 05:56:03;;;;;;;;;;;24.80;47.40;;;;;;1636603;71;675;-59
2023/07/04 05:58:04;;;;;;;;;;;24.70;47.50;;;;;;1627446;71;1934;-59
2023/07/04 06:00:07;;;;;;;;;;;24.70;47.60;;;;;;1647692;71;717;-60
2023/07/04 06:02:09;;;;;;;;;;;24.70;47.40;;;;;;1632772;71;1528;-61
2023/07/04 06:04:11;;;;;;;;;;;24.60;47.20;;;;;;1634691;71;753;-59
2023/07/04 06:06:30;;;;;;;;;;;24.70;47.60;;;;;;1645036;71;659;-61
2023/07/04 06:08:32;;;;;;;;;;;24.60;47.70;;;;;;1628380;71;1185;-60
2023/07/04 06:10:34;;;;;;;;;;;24.60;47.80;;;;;;1621960;71;813;-60
2023/07/04 06:12:36;;;;;;;;;;;24.60;47.70;;;;;;1634375;71;756;-59
2023/07/04 06:14:38;;;;;;;;;;;24.60;47.60;;;;;;1628240;71;798;-59
2023/07/04 06:16:40;;;;;;;;;;;24.70;47.10;;;;;;1635156;71;1577;-59
2023/07/04 06:18:43;;;;;;;;;;;24.80;46.80;;;;;;1632776;70;1951;-60
2023/07/04 06:20:45;;;;;;;;;;;24.70;47.30;;;;;;1624393;71;693;-59
2023/07/04 06:22:47;;;;;;;;;;;24.70;47.40;;;;;;1628937;71;688;-58
2023/07/04 06:24:50;;;;;;;;;;;24.70;48.00;;;;;;1629663;71;694;-59
2023/07/04 06:26:52;;;;;;;;;;;24.70;48.10;;;;;;1624438;71;619;-60
2023/07/04 06:28:54;;;;;;;;;;;24.70;47.70;;;;;;1632479;71;1105;-62
2023/07/04 06:30:56;;;;;;;;;;;24.90;47.30;;;;;;1623480;71;1573;-59
2023/07/04 06:32:58;;;;;;;;;;;24.90;47.50;;;;;;1639153;71;736;-61
2023/07/04 06:35:00;;;;;;;;;;;24.90;47.30;;;;;;1633153;71;756;-60
2023/07/04 06:37:02;;;;;;;;;;;24.80;47.40;;;;;;1629470;71;775;-60
2023/07/04 06:39:03;;;;;;;;;;;24.80;47.60;;;;;;1618093;71;1916;-59
2023/07/04 06:41:06;;;;;;;;;;;24.80;47.30;;;;;;1624171;71;786;-59
2023/07/04 06:43:08;;;;;;;;;;;24.80;47.50;;;;;;1622258;71;750;-59
2023/07/04 06:45:10;;;;;;;;;;;24.80;47.50;;;;;;1623610;71;1439;-60
2023/07/04 06:47:12;;;;;;;;;;;24.70;47.50;;;;;;1629375;71;758;-60
2023/07/04 06:49:13;;;;;;;;;;;24.80;47.40;;;;;;1620935;71;1095;-61
2023/07/04 06:51:16;;;;;;;;;;;24.70;47.60;;;;;;1642047;71;735;-60
2023/07/04 06:53:18;;;;;;;;;;;24.70;47.70;;;;;;1614933;71;776;-59
2023/07/04 06:55:21;;;;;;;;;;;24.70;47.70;;;;;;1618859;71;696;-59
2023/07/04 06:57:23;;;;;;;;;;;24.70;47.80;;;;;;1631326;71;709;-59
2023/07/04 06:59:24;;;;;;;;;;;24.60;47.70;;;;;;1618278;71;1671;-60
2023/07/04 07:01:30;;;;;;;;;;;24.60;47.30;;;;;;1637150;71;713;-62
2023/07/04 07:03:32;;;;;;;;;;;24.60;47.60;;;;;;1638844;71;674;-61
2023/07/04 07:05:38;;;;;;;;;;;24.60;47.70;;;;;;1640548;71;692;-60
2023/07/04 07:07:40;;;;;;;;;;;24.60;47.80;;;;;;1633509;71;760;-59
2023/07/04 07:09:42;;;;;;;;;;;24.60;48.20;;;;;;1618270;71;1150;-59
2023/07/04 07:11:44;;;;;;;;;;;24.70;48.20;;;;;;1632223;71;1512;-61
2023/07/04 07:13:50;;;;;;;;;;;24.70;48.00;;;;;;1624543;71;774;-60
2023/07/04 07:15:49;;;;;;;;;;;24.80;47.90;;;;;;1627514;71;1312;-61
2023/07/04 07:17:51;;;;;;;;;;;24.80;47.30;;;;;;1621290;71;1971;-59
2023/07/04 07:19:53;;;;;;;;;;;25.00;47.10;;;;;;1641366;70;1144;-59
2023/07/04 07:21:55;;;;;;;;;;;25.00;47.20;;;;;;1629421;71;784;-60
2023/07/04 07:23:57;;;;;;;;;;;25.00;47.50;;;;;;1616329;71;723;-60
2023/07/04 07:25:59;;;;;;;;;;;25.10;47.10;;;;;;1616569;72;1504;-61
2023/07/04 07:28:01;;;;;;;;;;;25.10;47.90;;;;;;1631464;70;1128;-62
2023/07/04 07:30:03;;;;;;;;;;;25.10;47.80;;;;;;1642517;71;666;-60
2023/07/04 07:32:06;;;;;;;;;;;25.10;47.20;;;;;;1649153;71;772;-60
2023/07/04 07:34:08;;;;;;;;;;;25.10;46.70;;;;;;1634300;71;1490;-59
2023/07/04 07:36:11;;;;;;;;;;;25.10;46.70;;;;;;1628449;71;745;-60
2023/07/04 07:38:12;;;;;;;;;;;25.10;47.40;;;;;;1631962;70;1939;-60
2023/07/04 07:40:14;;;;;;;;;;;25.10;47.10;;;;;;1636767;71;1494;-60
2023/07/04 07:42:16;;;;;;;;;;;25.10;47.10;;;;;;1620345;71;822;-60
2023/07/04 07:44:18;;;;;;;;;;;25.10;47.10;;;;;;1613004;71;681;-60
2023/07/04 07:46:20;;;;;;;;;;;25.10;47.10;;;;;;1625465;71;763;-60
2023/07/04 07:48:22;;;;;;;;;;;25.10;47.10;;;;;;1640461;71;1105;-60
2023/07/04 07:50:24;;;;;;;;;;;25.20;46.80;;;;;;1620207;71;776;-60
2023/07/04 07:52:26;;;;;;;;;;;25.10;47.00;;;;;;1625833;71;689;-60
2023/07/04 07:54:28;;;;;;;;;;;25.10;47.30;;;;;;1624455;71;1518;-59
2023/07/04 07:56:37;;;;;;;;;;;25.20;46.80;;;;;;1627014;71;676;-61
2023/07/04 07:58:39;;;;;;;;;;;25.20;46.60;;;;;;1627912;71;1926;-60
2023/07/04 08:00:41;;;;;;;;;;;25.30;46.70;;;;;;1615692;71;703;-60
2023/07/04 08:02:42;;;;;;;;;;;25.40;46.10;;;;;;1624486;71;662;-58
2023/07/04 08:04:44;;;;;;;;;;;25.30;46.10;;;;;;1638867;71;740;-59
2023/07/04 08:06:46;;;;;;;;;;;25.30;46.00;;;;;;1643348;71;708;-60
2023/07/04 08:08:48;;;;;;;;;;;25.20;45.90;;;;;;1618885;71;1524;-61
2023/07/04 08:10:50;;;;;;;;;;;25.10;45.70;;;;;;1631676;71;706;-62
2023/07/04 08:12:52;;;;;;;;;;;25.10;45.70;;;;;;1626406;71;685;-58
2023/07/04 08:14:54;;;;;;;;;;;25.00;45.90;;;;;;1628813;71;915;-60
2023/07/04 08:16:55;;;;;;;;;;;25.00;45.90;;;;;;1612532;71;873;-59
2023/07/04 08:18:58;;;;;;;;;;;25.00;45.80;;;;;;1611680;71;1944;-59
2023/07/04 08:21:02;;;;;;;;;;;25.00;45.90;;;;;;1636614;71;737;-60
2023/07/04 08:23:04;;;;;;;;;;;25.00;45.80;;;;;;1627807;71;1679;-60
2023/07/04 08:25:06;;;;;;;;;;;24.80;45.90;;;;;;1637277;71;835;-60
2023/07/04 08:27:08;;;;;;;;;;;24.90;46.20;;;;;;1635601;71;732;-63
2023/07/04 08:29:09;;;;;;;;;;;24.90;46.00;;;;;;1613276;71;1177;-60
2023/07/04 08:31:12;;;;;;;;;;;24.90;46.10;;;;;;1629504;71;694;-59
2023/07/04 08:33:17;;;;;;;;;;;25.00;45.60;;;;;;1634873;71;723;-60
2023/07/04 08:35:19;;;;;;;;;;;25.10;45.00;;;;;;1638501;71;802;-60
2023/07/04 08:37:20;;;;;;;;;;;25.20;44.30;;;;;;1620046;71;1278;-62
2023/07/04 08:39:22;;;;;;;;;;;25.20;44.20;;;;;;1632362;70;1924;-60
2023/07/04 08:41:26;;;;;;;;;;;25.20;44.20;;;;;;1623498;71;776;-60
2023/07/04 08:43:30;;;;;;;;;;;25.20;44.20;;;;;;1635608;71;716;-60
2023/07/04 08:45:32;;;;;;;;;;;25.20;44.20;;;;;;1622645;71;1971;-60
2023/07/04 08:47:33;;;;;;;;;;;25.10;44.30;;;;;;1631025;71;772;-60
2023/07/04 08:49:42;;;;;;;;;;;25.20;44.10;;;;;;1630351;71;1143;-59
2023/07/04 08:51:44;;;;;;;;;;;25.10;43.40;;;;;;1611026;71;1523;-60
2023/07/04 08:53:46;;;;;;;;;;;25.10;43.20;;;;;;1631535;71;714;-60
2023/07/04 08:55:55;;;;;;;;;;;25.10;43.00;;;;;;1622038;71;681;-60
2023/07/04 08:57:58;;;;;;;;;;;25.10;43.30;;;;;;1614452;71;928;-60
2023/07/04 09:00:04;;;;;;;;;;;25.00;43.10;;;;;;1617170;71;1989;-63
2023/07/04 09:02:25;;;;;;;;;;;25.00;43.20;;;;;;1624462;71;1942;-59
2023/07/04 09:04:29;;;;;;;;;;;25.00;43.20;;;;;;1613801;71;1652;-59
2023/07/04 09:06:35;;;;;;;;;;;25.00;43.00;;;;;;1611044;71;1974;-60
2023/07/04 09:08:55;;;;;;;;;;;25.00;42.60;;;;;;1618590;70;1151;-59
2023/07/04 09:10:59;;;;;;;;;;;25.00;42.40;;;;;;1628962;71;595;-59
2023/07/04 09:13:02;;;;;;;;;;;25.00;42.60;;;;;;1644531;71;802;-59
2023/07/04 09:15:14;;;;;;;;;;;25.00;42.50;;;;;;1619597;71;752;-59
2023/07/04 09:17:33;;;;;;;;;;;25.00;42.00;;;;;;1640804;71;701;-60
2023/07/04 09:19:36;;;;;;;;;;;25.00;41.80;;;;;;1609173;71;1994;-60
2023/07/04 09:21:38;;;;;;;;;;;25.10;42.10;;;;;;1639004;71;730;-60
2023/07/04 09:23:40;;;;;;;;;;;25.00;41.70;;;;;;1637675;71;807;-58
2023/07/04 09:25:42;;;;;;;;;;;25.10;41.40;;;;;;1620674;71;702;-59
2023/07/04 09:27:44;;;;;;;;;;;25.00;41.20;;;;;;1645063;71;828;-59
2023/07/04 09:29:46;;;;;;;;;;;25.00;41.30;;;;;;1620030;71;1134;-59
2023/07/04 09:31:48;;;;;;;;;;;25.00;41.40;;;;;;1622420;71;695;-59
2023/07/04 09:33:52;;;;;;;;;;;25.00;41.50;;;;;;1628296;71;1347;-59
2023/07/04 09:35:55;;;;;;;;;;;25.00;41.50;;;;;;1616252;71;740;-58
2023/07/04 09:37:58;;;;;;;;;;;25.00;41.60;;;;;;1619335;71;735;-59
2023/07/04 09:40:01;;;;;;;;;;;25.00;41.70;;;;;;1642125;71;1938;-59
2023/07/04 09:42:05;;;;;;;;;;;25.00;41.90;;;;;;1625088;71;784;-59
2023/07/04 09:44:13;;;;;;;;;;;25.10;42.00;;;;;;1630223;71;1651;-58
2023/07/04 09:46:20;;;;;;;;;;;25.10;41.80;;;;;;1620030;71;1418;-59
2023/07/04 09:48:25;;;;;;;;;;;25.10;41.90;;;;;;1624929;71;1162;-59
2023/07/04 09:50:27;;;;;;;;;;;25.10;41.80;;;;;;1628515;71;759;-58
2023/07/04 09:52:30;;;;;;;;;;;25.10;42.00;;;;;;1614404;71;753;-59
2023/07/04 09:54:32;;;;;;;;;;;25.00;42.00;;;;;;1625327;71;730;-60
2023/07/04 09:56:34;;;;;;;;;;;25.10;42.00;;;;;;1621347;71;756;-59
2023/07/04 09:58:36;;;;;;;;;;;25.10;41.90;;;;;;1619461;71;1947;-59
2023/07/04 10:00:38;;;;;;;;;;;25.10;42.00;;;;;;1625273;71;1524;-58
2023/07/04 10:02:40;;;;;;;;;;;25.00;41.80;;;;;;1638087;71;748;-60
2023/07/04 10:04:42;;;;;;;;;;;25.00;41.60;;;;;;1613303;71;768;-58
2023/07/04 10:06:44;;;;;;;;;;;25.00;41.60;;;;;;1638734;71;789;-58
2023/07/04 10:08:50;;;;;;;;;;;25.00;41.50;;;;;;1621663;71;1138;-59
2023/07/04 10:10:53;;;;;;;;;;;24.90;41.50;;;;;;1628081;71;748;-58
2023/07/04 10:12:55;;;;;;;;;;;24.90;41.50;;;;;;1618946;71;815;-58
2023/07/04 10:14:57;;;;;;;;;;;24.90;41.40;;;;;;1634761;71;1516;-58
2023/07/04 10:17:00;;;;;;;;;;;25.00;41.50;;;;;;1625529;71;727;-59
2023/07/04 10:19:08;;;;;;;;;;;24.90;41.30;;;;;;1629717;71;1941;-60
2023/07/04 10:21:10;;;;;;;;;;;24.90;41.40;;;;;;1637892;71;960;-59
2023/07/04 10:23:12;;;;;;;;;;;24.80;41.40;;;;;;1620783;71;713;-59
2023/07/04 10:25:17;;;;;;;;;;;24.90;41.60;;;;;;1628592;71;770;-58
2023/07/04 10:27:20;;;;;;;;;;;24.90;41.70;;;;;;1625133;71;768;-59
2023/07/04 10:29:23;;;;;;;;;;;24.90;41.80;;;;;;1638696;71;1535;-58
2023/07/04 10:31:25;;;;;;;;;;;24.80;41.80;;;;;;1641096;71;1695;-58
2023/07/04 10:33:28;;;;;;;;;;;24.80;41.90;;;;;;1624915;71;899;-58
2023/07/04 10:35:34;;;;;;;;;;;24.80;42.20;;;;;;1602096;71;1685;-59
2023/07/04 10:37:36;;;;;;;;;;;24.80;42.20;;;;;;1637563;71;784;-59
2023/07/04 10:39:38;;;;;;;;;;;24.80;42.10;;;;;;1649248;70;1943;-59
2023/07/04 10:41:40;;;;;;;;;;;24.80;42.10;;;;;;1626046;71;720;-59
2023/07/04 10:43:44;;;;;;;;;;;25.00;42.10;;;;;;1618157;71;1516;-60
2023/07/04 10:45:46;;;;;;;;;;;24.90;42.30;;;;;;1644739;71;725;-58
2023/07/04 10:47:48;;;;;;;;;;;25.00;42.10;;;;;;1628577;71;644;-59
2023/07/04 10:49:52;;;;;;;;;;;24.90;41.90;;;;;;1631141;71;1124;-59
2023/07/04 10:51:54;;;;;;;;;;;24.90;41.80;;;;;;1614202;71;695;-58
2023/07/04 10:53:56;;;;;;;;;;;24.90;41.80;;;;;;1620265;71;585;-58
2023/07/04 10:56:03;;;;;;;;;;;24.90;42.10;;;;;;1636554;71;769;-58
2023/07/04 10:58:09;;;;;;;;;;;24.90;42.10;;;;;;1630067;70;2395;-59
2023/07/04 11:00:12;;;;;;;;;;;24.90;42.10;;;;;;1634205;71;1937;-58
2023/07/04 11:02:16;;;;;;;;;;;24.90;42.00;;;;;;1638296;71;1016;-59
2023/07/04 11:04:20;;;;;;;;;;;24.90;41.90;;;;;;1626732;71;756;-58
2023/07/04 11:06:29;;;;;;;;;;;25.00;41.90;;;;;;1624558;71;694;-62
2023/07/04 11:08:30;;;;;;;;;;;25.00;41.90;;;;;;1625353;71;2498;-59
2023/07/04 11:10:31;;;;;;;;;;;25.00;42.00;;;;;;1634830;71;771;-59
2023/07/04 11:12:34;;;;;;;;;;;25.00;41.90;;;;;;1630200;71;1672;-60
2023/07/04 11:14:37;;;;;;;;;;;25.00;41.80;;;;;;1632005;71;634;-58
2023/07/04 11:16:39;;;;;;;;;;;25.00;41.80;;;;;;1645542;71;727;-59
2023/07/04 11:18:43;;;;;;;;;;;25.00;41.80;;;;;;1628610;71;1185;-58
2023/07/04 11:20:52;;;;;;;;;;;24.90;41.90;;;;;;1612385;71;1948;-59
2023/07/04 11:22:55;;;;;;;;;;;24.90;42.00;;;;;;1625998;71;819;-58
2023/07/04 11:24:56;;;;;;;;;;;24.90;41.90;;;;;;1625182;71;1546;-58
2023/07/04 11:27:05;;;;;;;;;;;24.90;41.80;;;;;;1591967;73;1304;-60
2023/07/04 11:29:06;;;;;;;;;;;24.90;41.80;;;;;;1612127;71;1739;-59
2023/07/04 11:31:09;;;;;;;;;;;24.90;41.90;;;;;;1637791;71;725;-58
2023/07/04 11:33:13;;;;;;;;;;;24.90;41.80;;;;;;1618789;71;749;-58
2023/07/04 11:35:15;;;;;;;;;;;25.00;41.60;;;;;;1600455;71;1065;-58
2023/07/04 11:37:24;;;;;;;;;;;25.00;41.50;;;;;;1624083;71;845;-57
2023/07/04 11:39:32;;;;;;;;;;;25.00;41.80;;;;;;1642179;70;1926;-58
2023/07/04 11:41:35;;;;;;;;;;;25.00;41.80;;;;;;1619957;71;776;-58
2023/07/04 11:43:40;;;;;;;;;;;24.90;41.70;;;;;;1626085;71;756;-58
2023/07/04 11:45:42;;;;;;;;;;;25.00;42.00;;;;;;1612390;71;1889;-58
2023/07/04 11:47:48;;;;;;;;;;;25.00;41.80;;;;;;1636916;71;825;-58
2023/07/04 11:49:56;;;;;;;;;;;25.00;41.80;;;;;;1635223;71;1064;-59
2023/07/04 11:52:06;;;;;;;;;;;25.00;41.80;;;;;;1635837;71;600;-58
2023/07/04 11:54:08;;;;;;;;;;;24.90;41.90;;;;;;1628242;71;1508;-59
2023/07/04 11:56:16;;;;;;;;;;;25.00;41.80;;;;;;1618511;71;708;-59
2023/07/04 11:58:19;;;;;;;;;;;24.90;41.90;;;;;;1626693;71;1158;-58
2023/07/04 12:00:31;;;;;;;;;;;24.90;42.20;;;;;;1630127;71;1927;-59
2023/07/04 12:02:33;;;;;;;;;;;24.80;42.40;;;;;;1645835;71;766;-60
2023/07/04 12:04:39;;;;;;;;;;;24.80;42.20;;;;;;1638572;71;864;-58
2023/07/04 12:06:43;;;;;;;;;;;24.90;42.30;;;;;;1629329;71;782;-59
2023/07/04 12:08:47;;;;;;;;;;;24.80;42.30;;;;;;1648562;71;1895;-58
2023/07/04 12:10:49;;;;;;;;;;;24.90;41.70;;;;;;1626867;71;625;-59
2023/07/04 12:12:52;;;;;;;;;;;24.80;42.10;;;;;;1629959;71;807;-59